• Join FlightAware (Why Join?)
  • Login
  • US Flag 
08:21PM EDT


 

Airport Tracker/Info


-or-


 

Live Flight TrackerFlight Track Log ✈ UAL532 ✈ 08-Jun-2013 ✈ KIAH - KPDX

Flight Track Log - Related Links

Times and Time Zones

All times are in EDT time to prevent confusion due to time zone crossing. See the UAL532 flight status page for this flight to view local times or setup timezone preferences in your user account.

Time Position Orientation Groundspeed Altitude Reporting Facility
EDT Latitude Longitude Course Direction KTS MPH feet Rate Location/Type
07:24PM 29.9803 -95.2931 334° Northwest 153 176 1,000  Level Houston Center
07:25PM 30.0564 -95.2925 360° North 238 274 3,700 2,340 Climbing Houston Center
07:26PM 30.1181 -95.3394 327° Northwest 262 302 6,500 2,700 Climbing Houston Center
07:27PM 30.3961 -95.5756 334° Northwest  Level FlightAware Approximate
07:27PM 30.1856 -95.3875 328° Northwest 281 323 9,300  Level Houston Center
07:28PM 30.5006 -95.6337 337° Northwest  Level FlightAware Approximate
07:28PM 30.2567 -95.4428 326° Northwest 303 349 11,000  Level Houston Center
07:29PM 30.6058 -95.6902 334° Northwest  Level FlightAware Approximate
07:29PM 30.3406 -95.5075 326° Northwest 356 410 12,400  Level Houston Center
07:30PM 30.4319 -95.5747 328° Northwest 383 441 14,900 2,280 Climbing Houston Center
07:31PM 30.5261 -95.6469 327° Northwest 401 461 17,100 1,860 Climbing Houston Center
07:32PM 30.6325 -95.7058 335° Northwest 422 486 18,800 1,860 Climbing Houston Center
07:33PM 30.7611 -95.7736 336° Northwest 425 489 20,900 1,800 Climbing Houston Center
07:34PM 30.8764 -95.8350 335° Northwest 440 506 22,500 1,560 Climbing Houston Center
07:35PM 30.9944 -95.8997 335° Northwest 456 525 24,200 1,320 Climbing Houston Center
07:36PM 31.1164 -95.9631 336° Northwest 469 540 25,300 1,140 Climbing Houston Center
07:37PM 31.2461 -96.0144 341° North 483 556 26,600 1,140 Climbing Houston Center
07:38PM 31.3783 -96.0650 342° North 492 566 27,700 1,320 Climbing Houston Center
07:39PM 31.5153 -96.1181 342° North 494 568 29,400 1,560 Climbing Houston Center
07:40PM 31.6447 -96.1689 342° North 489 563 31,000 1,500 Climbing Houston Center
07:41PM 31.7797 -96.2233 341° North 483 556 32,500 1,260 Climbing Fort Worth Center
07:42PM 31.8992 -96.2731 341° North 463 533 33,600 720 Climbing Fort Worth Center
07:43PM 32.0250 -96.3231 341° North 463 533 34,000 180 Climbing Fort Worth Center
07:44PM 32.1506 -96.3731 341° North 468 539 34,000  Level Fort Worth Center
07:45PM 32.2578 -96.4628 325° Northwest 468 539 34,000  Level Fort Worth Center
07:46PM 32.3503 -96.5675 316° Northwest 468 539 34,000  Level Fort Worth Center
07:47PM 32.4450 -96.6772 316° Northwest 463 533 34,000  Level Fort Worth Center
07:48PM 32.5375 -96.7800 317° Northwest 463 533 34,000  Level Fort Worth Center
07:49PM 32.6319 -96.8856 317° Northwest 463 533 34,000  Level Fort Worth Center
07:50PM 32.7242 -96.9911 316° Northwest 463 533 34,000  Level Fort Worth Center
07:51PM 32.8100 -97.0872 317° Northwest 463 533 34,000  Level Fort Worth Center
07:52PM 32.9083 -97.2056 315° West 458 527 34,000  Level Fort Worth Center
07:53PM 32.9689 -97.3242 301° West 458 527 34,000  Level Fort Worth Center
07:54PM 33.0400 -97.4556 303° West 469 540 34,000  Level Fort Worth Center
07:55PM 33.1108 -97.5822 304° West 469 540 34,000  Level Fort Worth Center
07:56PM 33.1794 -97.7064 303° West 464 534 34,000  Level Fort Worth Center
07:57PM 33.2481 -97.8308 303° West 459 528 34,000  Level Fort Worth Center
07:58PM 33.3164 -97.9578 303° West 459 528 34,000  Level Fort Worth Center
07:59PM 33.3847 -98.0850 303° West 459 528 34,000  Level Fort Worth Center
08:00PM 33.4508 -98.2103 302° West 454 522 34,000  Level Fort Worth Center
08:01PM 33.5167 -98.3378 302° West 454 522 34,000  Level Fort Worth Center
08:02PM 33.5908 -98.4683 304° West 465 535 34,000  Level Fort Worth Center
08:03PM 33.6586 -98.5939 303° West 460 529 34,000  Level Fort Worth Center
08:04PM 33.7261 -98.7197 303° West 455 524 34,000  Level Fort Worth Center
08:05PM 33.7917 -98.8456 302° West 455 524 34,000  Level Fort Worth Center
08:06PM 33.8608 -98.9817 301° West 450 518 34,000  Level Fort Worth Center
08:07PM 33.9261 -99.1031 303° West 444 511 34,000 600 Level Fort Worth Center
08:08PM 33.9911 -99.2247 303° West 437 503 35,300 960 Climbing Fort Worth Center
08:09PM 34.0561 -99.3489 302° West 437 503 36,000 300 Climbing Fort Worth Center
08:10PM 34.1189 -99.4706 302° West 437 503 36,000  Level Fort Worth Center
08:11PM 34.1833 -99.5978 302° West 437 503 36,000  Level Fort Worth Center
08:12PM 34.2478 -99.7250 302° West 437 503 36,000  Level Fort Worth Center
08:14PM 34.3436 -99.9111 302° West 437 503 36,000  Level Albuquerque Center
08:15PM 34.4203 -100.0619 302° West 436 502 36,000  Level Albuquerque Center
08:16PM 34.4744 -100.1686 302° West 436 502 36,000  Level Albuquerque Center
08:17PM 34.5511 -100.3161 302° West 433 498 36,000  Level Albuquerque Center
08:18PM 34.6147 -100.4433 301° West 438 504 36,000  Level Albuquerque Center
08:19PM 34.6803 -100.5703 302° West 443 510 36,000  Level Albuquerque Center
08:20PM 34.7647 -100.6803 313° West 445 512 36,000  Level Albuquerque Center
08:21PM 34.8461 -100.7931 311° West 445 512 36,000  Level Albuquerque Center
08:22PM 34.9272 -100.9044 312° West 442 509 36,000  Level Albuquerque Center
08:23PM 35.0106 -101.0122 313° West 440 506 36,000  Level Albuquerque Center
08:24PM 35.1111 -101.1394 314° West 438 504 36,000  Level Albuquerque Center
08:25PM 35.1919 -101.2453 313° West 432 497 36,000  Level Albuquerque Center
08:26PM 35.2753 -101.3528 314° West 428 493 36,000  Level Albuquerque Center
08:27PM 35.3586 -101.4600 314° West 430 495 36,000  Level Albuquerque Center
08:28PM 35.4353 -101.5672 311° West 424 488 36,000  Level Albuquerque Center
08:29PM 35.5033 -101.6867 305° West 423 487 36,000  Level Albuquerque Center
08:30PM 35.5656 -101.8231 299° West 424 488 36,000  Level Albuquerque Center
08:32PM 35.6242 -101.9469 300° West 423 487 36,000  Level Albuquerque Center
08:33PM 35.6825 -102.0694 300° West 419 482 36,000  Level Albuquerque Center
08:34PM 35.7392 -102.1919 300° West 416 479 36,000  Level Albuquerque Center
08:35PM 35.7975 -102.3139 301° West 414 476 36,000  Level Albuquerque Center
08:36PM 35.8536 -102.4369 299° West 413 475 36,000  Level Albuquerque Center
08:37PM 35.9217 -102.5847 300° West 415 478 36,000  Level Albuquerque Center
08:38PM 35.9786 -102.7078 300° West 414 476 36,000  Level Albuquerque Center
08:39PM 36.0358 -102.8308 300° West 415 478 36,000  Level Albuquerque Center
08:40PM 36.0928 -102.9517 300° West 413 475 36,000  Level Albuquerque Center
08:41PM 36.1486 -103.0761 299° West 412 474 36,000  Level Albuquerque Center
08:42PM 36.2067 -103.2019 300° West 416 479 36,000  Level Albuquerque Center
08:43PM 36.2650 -103.3308 299° West 423 487 36,000  Level Albuquerque Center
08:44PM 36.3314 -103.4786 299° West 421 484 36,000  Level Albuquerque Center
08:45PM 36.3889 -103.6053 299° West 419 482 36,000  Level Albuquerque Center
08:46PM 36.4464 -103.7331 299° West 421 484 36,000  Level Albuquerque Center
08:47PM 36.5025 -103.8606 299° West 419 482 36,000  Level Albuquerque Center
08:48PM 36.5592 -103.9894 299° West 422 486 36,000  Level Albuquerque Center
08:49PM 36.6169 -104.1186 299° West 424 488 36,000  Level Albuquerque Center
08:50PM 36.6778 -104.2550 299° West 422 486 36,000  Level Albuquerque Center
08:51PM 36.7317 -104.3778 299° West 421 484 36,000  Level Albuquerque Center
08:52PM 36.7958 -104.5225 299° West 423 487 36,000  Level Albuquerque Center
08:53PM 36.8503 -104.6464 299° West 424 488 36,000  Level Albuquerque Center
08:54PM 36.9039 -104.7689 299° West 420 483 36,000  Level Albuquerque Center
08:55PM 36.9664 -104.9147 298° West 423 487 36,000  Level Albuquerque Center
08:56PM 37.0272 -105.0594 298° West 421 484 36,000  Level Denver Center
08:57PM 37.0800 -105.1825 298° West 417 480 36,000  Level Denver Center
08:58PM 37.1342 -105.3086 298° West 426 490 36,000  Level Denver Center
08:59PM 37.1981 -105.4556 299° West 427 491 36,000  Level Denver Center
09:00PM 37.2508 -105.5803 298° West 425 489 36,000  Level Denver Center
09:01PM 37.3058 -105.7128 298° West 424 488 36,000  Level Denver Center
09:02PM 37.3697 -105.8567 299° West 422 486 36,000  Level Denver Center
09:03PM 37.4364 -105.9692 307° West 417 480 36,000  Level Denver Center
09:04PM 37.5019 -106.0814 306° West 416 479 36,000  Level Denver Center
09:05PM 37.5764 -106.2147 305° West 417 480 36,000  Level Denver Center
09:06PM 37.6425 -106.3294 306° West 419 482 36,000  Level Denver Center
09:07PM 37.7175 -106.4639 305° West 420 483 36,000  Level Denver Center
09:08PM 37.7806 -106.5783 305° West 416 479 36,000  Level Denver Center
09:09PM 37.8522 -106.7053 306° West 418 481 36,000  Level Denver Center
09:10PM 37.9178 -106.8219 305° West 425 489 36,000  Level Denver Center
09:12PM 37.9833 -106.9389 305° West 426 490 36,000  Level Denver Center
09:13PM 38.0378 -107.0394 305° West 431 496 36,000  Level Denver Center
09:14PM 38.1242 -107.1964 305° West 426 490 36,000  Level Denver Center
09:15PM 38.1894 -107.3147 305° West 426 490 36,000  Level Denver Center
09:16PM 38.2647 -107.4522 305° West 425 489 36,000  Level Denver Center
09:17PM 38.3278 -107.5694 304° West 421 484 36,000  Level Denver Center
09:18PM 38.4008 -107.7069 304° West 417 480 36,000  Level Denver Center
09:19PM 38.4639 -107.8244 304° West 419 482 36,000  Level Denver Center
09:20PM 38.5306 -107.9392 307° West 421 484 36,000  Level Denver Center
09:21PM 38.6122 -108.0689 309° West 419 482 36,000  Level Denver Center
09:22PM 38.6833 -108.1814 309° West 424 488 36,000  Level Denver Center
09:23PM 38.7525 -108.2953 308° West 424 488 36,000  Level Denver Center
09:24PM 38.8336 -108.4281 308° West 424 488 36,000  Level Denver Center
09:25PM 38.9044 -108.5439 308° West 429 494 36,000  Level Denver Center
09:26PM 38.9756 -108.6581 309° West 427 491 36,000  Level Denver Center
09:27PM 39.0569 -108.7892 309° West 420 483 36,000  Level Denver Center
09:28PM 39.1264 -108.9036 308° West 421 484 36,000  Level Denver Center
09:29PM 39.2086 -109.0369 309° West 423 487 36,000  Level Denver Center
09:30PM 39.2778 -109.1508 308° West 420 483 36,000  Level Denver Center
09:31PM 39.3467 -109.2644 308° West 417 480 36,000  Level Denver Center
09:32PM 39.4269 -109.3978 308° West 419 482 36,000  Level Denver Center
09:32PM 39.4611 -109.4556 307° West 420 483 36,000  Level Salt Lake Center
09:33PM 39.5297 -109.5689 308° West 417 480 36,000  Level Salt Lake Center
09:34PM 39.6108 -109.7039 308° West 422 486 36,000  Level Salt Lake Center
09:35PM 39.6442 -109.7611 307° West 419 482 36,000  Level Denver Center
09:35PM 39.6786 -109.8197 307° West 421 484 36,000  Level Salt Lake Center
09:37PM 39.7469 -109.9369 307° West 423 487 36,000  Level Salt Lake Center
09:38PM 39.8267 -110.0725 307° West 423 487 36,000  Level Salt Lake Center
09:39PM 39.8953 -110.1889 308° West 421 484 36,000  Level Salt Lake Center
09:40PM 39.9636 -110.3061 307° West 423 487 36,000  Level Salt Lake Center
09:41PM 40.0436 -110.4425 307° West 424 488 36,000  Level Salt Lake Center
09:42PM 40.1128 -110.5589 308° West 423 487 36,000  Level Salt Lake Center
09:43PM 40.1908 -110.6961 307° West 421 484 36,000  Level Salt Lake Center
09:44PM 40.2581 -110.8125 307° West 419 482 36,000  Level Salt Lake Center
09:45PM 40.3239 -110.9286 307° West 418 481 36,000  Level Salt Lake Center
09:46PM 40.3947 -111.0497 308° West 419 482 36,000  Level Salt Lake Center
09:47PM 40.4636 -111.1736 306° West 420 483 36,000  Level Salt Lake Center
09:48PM 40.5350 -111.2964 307° West 422 486 36,000  Level Salt Lake Center
09:49PM 40.6050 -111.4206 307° West 424 488 36,000  Level Salt Lake Center
09:50PM 40.6889 -111.5689 307° West 422 486 36,000  Level Salt Lake Center
09:51PM 40.7594 -111.6939 307° West 425 489 36,000  Level Salt Lake Center
09:52PM 40.8300 -111.8192 307° West 421 484 36,000  Level Salt Lake Center
09:53PM 40.9011 -111.9489 306° West 429 494 36,000  Level Salt Lake Center
09:54PM 40.9703 -112.0772 306° West 423 487 36,000  Level Salt Lake Center
09:55PM 41.0406 -112.2036 306° West 421 484 36,000  Level Salt Lake Center
09:56PM 41.1089 -112.3300 306° West 419 482 36,000  Level Salt Lake Center
09:57PM 41.1772 -112.4567 306° West 421 484 36,000  Level Salt Lake Center
09:58PM 41.2458 -112.5828 306° West 420 483 36,000  Level Salt Lake Center
09:59PM 41.3150 -112.7086 306° West 422 486 36,000  Level Salt Lake Center
10:00PM 41.3828 -112.8356 305° West 421 484 36,000  Level Salt Lake Center
10:01PM 41.4517 -112.9617 306° West 421 484 36,000  Level Salt Lake Center
10:02PM 41.5178 -113.0886 305° West 419 482 36,000  Level Salt Lake Center
10:03PM 41.5867 -113.2169 306° West 425 489 36,000  Level Salt Lake Center
10:04PM 41.6547 -113.3450 305° West 424 488 36,000  Level Salt Lake Center
10:05PM 41.7375 -113.4994 306° West 426 490 36,000  Level Salt Lake Center
10:06PM 41.8069 -113.6292 306° West 428 493 36,000  Level Salt Lake Center
10:07PM 41.8733 -113.7603 304° West 426 490 36,000  Level Salt Lake Center
10:08PM 41.9411 -113.8894 305° West 425 489 36,000  Level Salt Lake Center
10:09PM 42.0117 -114.0175 307° West 427 491 36,000  Level Salt Lake Center
10:10PM 42.0806 -114.1464 306° West 427 491 36,000  Level Salt Lake Center
10:11PM 42.1514 -114.2775 306° West 432 497 36,000  Level Salt Lake Center
10:12PM 42.2197 -114.4064 306° West 424 488 36,000  Level Salt Lake Center
10:13PM 42.2886 -114.5358 306° West 425 489 36,000  Level Salt Lake Center
10:14PM 42.3578 -114.6644 306° West 424 488 36,000  Level Salt Lake Center
10:15PM 42.4258 -114.7939 305° West 422 486 36,000  Level Salt Lake Center
10:16PM 42.4981 -114.9336 305° West 421 484 36,000  Level Salt Lake Center
10:17PM 42.5750 -115.0800 306° West 427 491 36,000  Level Salt Lake Center
10:18PM 42.6400 -115.2061 305° West 424 488 36,000  Level Salt Lake Center
10:19PM 42.7042 -115.3297 305° West 421 484 36,000  Level Salt Lake Center
10:20PM 42.7797 -115.4747 305° West 419 482 36,000  Level Salt Lake Center
10:21PM 42.8431 -115.5986 305° West 416 479 36,000  Level Salt Lake Center
10:22PM 42.9167 -115.7433 305° West 414 476 36,000  Level Salt Lake Center
10:23PM 42.9797 -115.8694 304° West 417 480 36,000  Level Salt Lake Center
10:24PM 43.0444 -115.9917 306° West 415 478 36,000  Level Salt Lake Center
10:25PM 43.1192 -116.1436 304° West 409 471 36,000  Level Salt Lake Center
10:26PM 43.1822 -116.2686 305° West 415 478 36,000  Level Salt Lake Center
10:27PM 43.2453 -116.3947 304° West 417 480 36,000  Level Salt Lake Center
10:28PM 43.3186 -116.5408 305° West 417 480 36,000  Level Salt Lake Center
10:29PM 43.3808 -116.6672 304° West 415 478 36,000  Level Salt Lake Center
10:30PM 43.4428 -116.7933 304° West 413 475 36,000  Level Salt Lake Center
10:32PM 43.5153 -116.9414 304° West 415 478 36,000  Level Salt Lake Center
10:33PM 43.5778 -117.0672 304° West 413 475 36,000  Level Salt Lake Center
10:34PM 43.6397 -117.1953 304° West 416 479 36,000  Level Salt Lake Center
10:35PM 43.7125 -117.3461 304° West 420 483 36,000  Level Salt Lake Center
10:36PM 43.7758 -117.4750 304° West 421 484 36,000  Level Salt Lake Center
10:37PM 43.8381 -117.6053 304° West 424 488 36,000  Level Salt Lake Center
10:38PM 43.9097 -117.7575 303° West 420 483 36,000  Level Salt Lake Center
10:39PM 43.9731 -117.8897 304° West 428 493 36,000  Level Salt Lake Center
10:40PM 44.0461 -118.0428 304° West 425 489 36,000  Level Salt Lake Center
10:41PM 44.1064 -118.1731 303° West 418 481 36,000  Level Salt Lake Center
10:42PM 44.1681 -118.3014 304° West 417 480 36,000  Level Salt Lake Center
10:43PM 44.2272 -118.4289 303° West 414 476 36,000  Level Salt Lake Center
10:44PM 44.2900 -118.5628 303° West 413 475 36,000  Level Salt Lake Center
10:45PM 44.3653 -118.7267 303° West 417 480 36,000  Level Salt Lake Center
10:46PM 44.4269 -118.8614 303° West 414 476 36,000  Level Salt Lake Center
10:47PM 44.4892 -118.9975 303° West 415 478 36,000  Level Salt Lake Center
10:48PM 44.5522 -119.1353 303° West 419 482 36,000  Level Salt Lake Center
10:49PM 44.6144 -119.2722 303° West 418 481 36,000  Level Salt Lake Center
10:50PM 44.6767 -119.4106 302° West 419 482 36,000  Level Salt Lake Center
10:51PM 44.7386 -119.5481 302° West 418 481 36,000  Level Salt Lake Center
10:52PM 44.8003 -119.6853 302° West 417 480 36,000  Level Salt Lake Center
10:53PM 44.8736 -119.8508 302° West 418 481 36,000  Level Seattle Center
10:54PM 44.9394 -119.9978 302° West 422 486 36,000  Level Seattle Center
10:55PM 44.9914 -120.1172 302° West 426 490 36,000 -1,140 Level Seattle Center
10:56PM 45.0531 -120.2572 302° West 419 482 33,800 -2,640 Descending Seattle Center
10:57PM 45.1142 -120.3972 302° West 418 481 30,700 -2,400 Descending Seattle Center
10:58PM 45.1836 -120.5586 301° West 398 458 29,000 -1,980 Descending Seattle Center
10:59PM 45.2308 -120.6872 298° West 371 427 26,800 -2,160 Descending Seattle Center
11:00PM 45.2783 -120.8103 299° West 358 412 24,700 -2,040 Descending Seattle Center
11:01PM 45.3239 -120.9308 298° West 349 402 22,700 -2,160 Descending Seattle Center
11:02PM 45.3700 -121.0467 300° West 338 389 20,400 -2,280 Descending Seattle Center
11:03PM 45.4139 -121.1642 298° West 336 387 18,200 -2,160 Descending Seattle Center
11:04PM 45.4453 -121.2853 290° West 329 379 16,100 -2,040 Descending Seattle Center
11:05PM 45.4697 -121.4072 286° West 322 371 14,100 -2,040 Descending Seattle Center
11:06PM 45.4933 -121.5306 285° West 324 373 12,100 -1,740 Descending Seattle Center
11:07PM 45.5161 -121.6486 285° West 311 358 10,600 -1,140 Descending Seattle Center
11:08PM 45.5308 -121.7550 281° West 274 315 9,900 -1,020 Descending Seattle Center
11:09PM 45.5278 -121.8575 268° West 259 298 8,600 -1,440 Descending Seattle Center
11:10PM 45.5242 -121.9906 268° West 252 290 6,700 -1,500 Descending Seattle Center
11:11PM 45.5239 -122.0525 270° West 253 291 5,900 -840 Descending Seattle Center
11:12PM 45.5194 -122.1469 266° West 234 269 5,400 -660 Descending Seattle Center
11:13PM 45.5189 -122.2275 269° West 193 222 4,600 -960 Descending Seattle Center
11:14PM 45.5172 -122.3139 268° West 199 229 3,400 -900 Descending Seattle Center
11:15PM 45.5169 -122.3906 270° West 195 224 2,700 -900 Descending Seattle Center
11:16PM 45.5403 -122.4533 298° West 181 208 1,700 -1,020 Descending Seattle Center